METAR Data
IDs: Format: Raw Decoded Include TAF

Data at: 1319 UTC 07 Jul 2020

KORE 071306Z AUTO 16008KT 10SM BKN018 21/16 A3018 RMK AO2 T02110156
KORE 071252Z AUTO 17007KT 10SM FEW020 21/16 A3019 RMK AO2 SLP220 T02060156
KORE 071227Z AUTO 17006KT 10SM SCT016 19/16 A3019 RMK AO2 T01940156
KORE 071152Z AUTO 19005KT 10SM BKN016 19/16 A3019 RMK AO2 SLP220 T01940156 10206 20161 51008
KORE 071140Z AUTO 19005KT 10SM BKN015 19/16 A3018 RMK AO2 T01890156
KORE 071052Z AUTO 00000KT 10SM SCT016 18/16 A3019 RMK AO2 SLP220 T01830161
KORE 071027Z AUTO 00000KT 10SM BKN016 17/16 A3019 RMK AO2 T01720161
KORE 070952Z AUTO 00000KT 10SM BKN014 17/16 A3018 RMK AO2 SLP216 T01720161
KORE 070941Z AUTO 00000KT 10SM BKN015 17/16 A3017 RMK AO2 T01720161
KORE 070852Z AUTO 00000KT 10SM CLR 17/16 A3016 RMK AO2 SLP212 T01720161 53002
KORE 070752Z AUTO 00000KT 10SM CLR 18/17 A3015 RMK AO2 SLP207 T01780167
KORE 070652Z AUTO 22003KT 10SM CLR 19/17 A3015 RMK AO2 SLP208 T01890172
KORE 070552Z AUTO 19004KT 10SM OVC040 21/18 A3016 RMK AO2 SLP209 T02060178 10244 20194 50003
KORE 070452Z AUTO 15003KT 10SM FEW015 OVC038 21/16 A3016 RMK AO2 SLP211 T02060156 403110156
KORE 070352Z AUTO 00000KT 10SM FEW034 SCT041 BKN055 19/15 A3016 RMK AO2 SLP211 T01940150
KORE 070252Z AUTO 09004KT 10SM FEW043 SCT055 21/14 A3015 RMK AO2 SLP207 T02060144 51013
KORE 070152Z AUTO 11004KT 10SM SCT038 BKN055 22/14 A3014 RMK AO2 SLP205 T02170144
KORE 070052Z AUTO 15005KT 10SM CLR 23/14 A3013 RMK AO2 SLP201 T02280144
KORE 062352Z AUTO 12008KT 10SM CLR 24/17 A3011 RMK AO2 LTG DSNT SW SLP193 T02440172 10311 20244 51015
KORE 062252Z AUTO 12009KT 10SM BKN075 26/17 A3010 RMK AO2 SLP191 T02610172
KORE 062152Z AUTO 12014KT 10SM BKN060 BKN075 28/17 A3008 RMK AO2 SLP184 T02780167
KORE 062052Z AUTO 13007KT 10SM FEW075 29/14 A3006 RMK AO2 SLP178 T02940139 55006
KORE 061952Z AUTO 01008KT 10SM CLR 31/09 A3006 RMK AO2 SLP176 T03060094
KORE 061852Z AUTO 01008KT 10SM CLR 31/09 A3007 RMK AO2 SLP181 T03110094
KORE 061752Z AUTO 36005KT 10SM CLR 30/10 A3008 RMK AO2 SLP185 T03000100 10306 20211 58003
KORE 061652Z AUTO 06004KT 10SM BKN055 28/14 A3009 RMK AO2 SLP186 T02780139
KORE 061552Z AUTO VRB03KT 10SM FEW047 28/14 A3009 RMK AO2 SLP186 T02780144
KORE 061452Z AUTO 36005KT 10SM SCT036 27/16 A3009 RMK AO2 SLP186 T02670161 51012
KORE 061352Z AUTO VRB03KT 10SM CLR 25/16 A3008 RMK AO2 SLP182 T02500161
KORE 061252Z AUTO 00000KT 10SM CLR 23/17 A3008 RMK AO2 SLP182 T02330167
KORE 061152Z AUTO 00000KT 10SM CLR 21/17 A3006 RMK AO2 SLP175 T02060167 10206 20156 51014
KORE 061052Z AUTO 00000KT 10SM CLR 18/16 A3005 RMK AO2 SLP172 T01830161
KORE 060952Z AUTO 00000KT 10SM CLR 16/16 A3003 RMK AO2 SLP166 T01610156
KORE 060852Z AUTO 00000KT 10SM CLR 16/15 A3001 RMK AO2 SLP161 T01610150 53009
KORE 060752Z AUTO 00000KT 10SM CLR 17/16 A3000 RMK AO2 SLP157 T01670156
KORE 060652Z AUTO 00000KT 10SM CLR 17/16 A2999 RMK AO2 SLP154 T01720161
KORE 060552Z AUTO 00000KT 10SM CLR 18/16 A2999 RMK AO2 SLP151 T01780161 10261 20178 50005
KORE 060452Z AUTO 00000KT 10SM CLR 18/16 A2999 RMK AO2 SLP152 T01830161 403220183
KORE 060352Z AUTO 00000KT 10SM CLR 20/16 A2998 RMK AO2 SLP148 T02000161
KORE 060252Z AUTO 00000KT 10SM CLR 22/16 A2997 RMK AO2 SLP146 T02220156 53018
KORE 060152Z AUTO 02010KT 10SM SCT075 24/17 A2996 RMK AO2 SLP142 T02390172